Terminal Aerodrome Forecast
Issued by NWS

Home | Current Version | Previous Version | Text Only | Print | Product List | Glossary Off
Versions: 1 2 3 4 5 6 7 8 9 10 11 12 13 14 15 16

220
FTUS42 KMHX 161139
TAFPGV
TAF
KPGV 161139Z 1612/1712 06005KT P6SM -DZ SCT020 OVC040
     FM161400 07006KT P6SM OVC020
     FM162300 VRB02KT P6SM SCT020 BKN040
     FM170600 VRB02KT 5SM BR SCT020 BKN040
      AMD LTD TO CLD VIS AND WIND=

USA.gov is the U.S. government's official web portal to all federal, state and local government web resources and services.